UAL2810 KCOS-KDEN
Flight info
| Callsign | UAL2810 |
|---|---|
| Flight time | 0h 18m |
| Altitude | 13000 |
| Route | ADANE V389 LUFSE JEFEL FQF |
| Aircraft | A320/M-SDE3FGHIRWY/LB1 |
Departure
| Time | 2026-05-06 03:33 |
|---|---|
| Airport | City of Colorado Springs Municipal Airport (KCOS) |
Arrival
| Time | 2026-05-06 03:51 |
|---|---|
| Airport | Denver International Airport (KDEN) |
| Time | Latitude | Longitude | Altitude | Speed | Heading |
|---|---|---|---|---|---|
| 2026-05-06 03:09 | 38.80000 | -104.70124 | 6146 ft | 0 kts | 171° |
| 2026-05-06 03:23 | 38.80007 | -104.70126 | 6137 ft | 2 kts | 171° |
| 2026-05-06 03:23 | 38.80027 | -104.70129 | 6147 ft | 3 kts | 171° |
| 2026-05-06 03:23 | 38.80047 | -104.70133 | 6147 ft | 3 kts | 171° |
| 2026-05-06 03:24 | 38.80050 | -104.70134 | 6147 ft | 1 kts | 171° |
| 2026-05-06 03:26 | 38.80053 | -104.70043 | 6147 ft | 18 kts | 41° |
| 2026-05-06 03:26 | 38.80111 | -104.70080 | 6148 ft | 8 kts | 333° |
| 2026-05-06 03:26 | 38.80226 | -104.70084 | 6150 ft | 26 kts | 5° |
| 2026-05-06 03:26 | 38.80350 | -104.70059 | 6152 ft | 12 kts | 47° |
| 2026-05-06 03:27 | 38.80357 | -104.69920 | 6152 ft | 30 kts | 96° |
| 2026-05-06 03:27 | 38.80369 | -104.69676 | 6153 ft | 24 kts | 87° |
| 2026-05-06 03:27 | 38.80361 | -104.69476 | 6153 ft | 21 kts | 94° |
| 2026-05-06 03:27 | 38.80357 | -104.69307 | 6153 ft | 18 kts | 85° |
| 2026-05-06 03:28 | 38.80362 | -104.69077 | 6153 ft | 36 kts | 90° |
| 2026-05-06 03:28 | 38.80376 | -104.68803 | 6153 ft | 15 kts | 56° |
| 2026-05-06 03:28 | 38.80462 | -104.68795 | 6154 ft | 18 kts | 348° |
| 2026-05-06 03:28 | 38.80591 | -104.68778 | 6156 ft | 17 kts | 1° |
| 2026-05-06 03:29 | 38.80739 | -104.68779 | 6159 ft | 30 kts | 359° |
| 2026-05-06 03:29 | 38.80995 | -104.68789 | 6163 ft | 41 kts | 359° |
| 2026-05-06 03:29 | 38.81260 | -104.68786 | 6167 ft | 35 kts | 1° |
| 2026-05-06 03:29 | 38.81475 | -104.68786 | 6174 ft | 27 kts | 2° |
| 2026-05-06 03:30 | 38.81592 | -104.68728 | 6173 ft | 12 kts | 72° |
| 2026-05-06 03:30 | 38.81598 | -104.68697 | 6176 ft | 0 kts | 77° |
| 2026-05-06 03:32 | 38.81588 | -104.68599 | 6176 ft | 20 kts | 124° |
| 2026-05-06 03:32 | 38.81453 | -104.68573 | 6173 ft | 32 kts | 180° |
| 2026-05-06 03:32 | 38.80958 | -104.68573 | 6162 ft | 108 kts | 179° |
| 2026-05-06 03:32 | 38.79997 | -104.68575 | 6147 ft | 165 kts | 180° |
| 2026-05-06 03:33 | 38.78745 | -104.68574 | 6454 ft | 186 kts | 180° |
| 2026-05-06 03:33 | 38.77383 | -104.68597 | 6974 ft | 201 kts | 181° |
| 2026-05-06 03:33 | 38.75982 | -104.68708 | 7713 ft | 203 kts | 185° |
| 2026-05-06 03:33 | 38.74600 | -104.68770 | 8513 ft | 193 kts | 178° |
| 2026-05-06 03:34 | 38.73226 | -104.68657 | 8914 ft | 207 kts | 173° |
| 2026-05-06 03:34 | 38.71857 | -104.67916 | 9014 ft | 231 kts | 141° |
| 2026-05-06 03:34 | 38.70906 | -104.66170 | 9156 ft | 253 kts | 110° |
| 2026-05-06 03:34 | 38.70695 | -104.63824 | 9397 ft | 280 kts | 90° |
| 2026-05-06 03:35 | 38.71075 | -104.61308 | 9941 ft | 296 kts | 68° |
| 2026-05-06 03:35 | 38.72237 | -104.59085 | 10214 ft | 314 kts | 43° |
| 2026-05-06 03:35 | 38.73997 | -104.57261 | 10455 ft | 337 kts | 37° |
| 2026-05-06 03:35 | 38.75899 | -104.55392 | 10918 ft | 350 kts | 37° |
| 2026-05-06 03:36 | 38.77854 | -104.53489 | 11577 ft | 355 kts | 36° |
| 2026-05-06 03:36 | 38.79833 | -104.51557 | 12275 ft | 360 kts | 36° |
| 2026-05-06 03:36 | 38.81834 | -104.49593 | 12841 ft | 365 kts | 35° |
| 2026-05-06 03:36 | 38.83849 | -104.47608 | 12994 ft | 366 kts | 35° |
| 2026-05-06 03:37 | 38.85892 | -104.45584 | 13030 ft | 375 kts | 35° |
| 2026-05-06 03:37 | 38.87969 | -104.43522 | 13029 ft | 377 kts | 35° |
| 2026-05-06 03:37 | 38.90153 | -104.41669 | 13028 ft | 375 kts | 25° |
| 2026-05-06 03:37 | 38.92545 | -104.40398 | 13029 ft | 369 kts | 13° |
| 2026-05-06 03:38 | 38.95040 | -104.39754 | 13026 ft | 365 kts | 2° |
| 2026-05-06 03:38 | 38.97568 | -104.39601 | 13024 ft | 363 kts | 358° |
| 2026-05-06 03:38 | 39.00094 | -104.39489 | 13023 ft | 363 kts | 358° |
| 2026-05-06 03:38 | 39.02618 | -104.39374 | 13020 ft | 363 kts | 359° |
| 2026-05-06 03:39 | 39.05144 | -104.39249 | 13017 ft | 363 kts | 359° |
| 2026-05-06 03:39 | 39.07673 | -104.39120 | 13016 ft | 363 kts | 359° |
| 2026-05-06 03:39 | 39.10205 | -104.38993 | 13016 ft | 364 kts | 359° |
| 2026-05-06 03:39 | 39.12702 | -104.38868 | 13016 ft | 364 kts | 359° |
| 2026-05-06 03:40 | 39.15214 | -104.38738 | 13005 ft | 360 kts | 359° |
| 2026-05-06 03:40 | 39.17729 | -104.38608 | 12993 ft | 362 kts | 360° |
| 2026-05-06 03:40 | 39.20229 | -104.38133 | 12989 ft | 364 kts | 10° |
| 2026-05-06 03:40 | 39.22676 | -104.37608 | 12981 ft | 351 kts | 356° |
| 2026-05-06 03:41 | 39.25031 | -104.38158 | 12979 ft | 341 kts | 334° |
| 2026-05-06 03:41 | 39.27124 | -104.39534 | 12976 ft | 338 kts | 327° |
| 2026-05-06 03:41 | 39.29173 | -104.41032 | 12972 ft | 338 kts | 327° |
| 2026-05-06 03:41 | 39.31219 | -104.42539 | 12972 ft | 338 kts | 327° |
| 2026-05-06 03:42 | 39.33256 | -104.44044 | 12974 ft | 338 kts | 327° |
| 2026-05-06 03:42 | 39.35296 | -104.45549 | 12984 ft | 337 kts | 327° |
| 2026-05-06 03:42 | 39.37335 | -104.47053 | 12974 ft | 337 kts | 327° |
| 2026-05-06 03:42 | 39.39333 | -104.48522 | 12933 ft | 324 kts | 327° |
| 2026-05-06 03:43 | 39.41259 | -104.49933 | 12783 ft | 313 kts | 327° |
| 2026-05-06 03:43 | 39.43144 | -104.51316 | 12469 ft | 309 kts | 327° |
| 2026-05-06 03:43 | 39.45005 | -104.52696 | 12074 ft | 309 kts | 327° |
| 2026-05-06 03:43 | 39.46846 | -104.54079 | 11673 ft | 309 kts | 327° |
| 2026-05-06 03:44 | 39.48699 | -104.55490 | 11262 ft | 310 kts | 327° |
| 2026-05-06 03:44 | 39.50556 | -104.56923 | 10842 ft | 311 kts | 327° |
| 2026-05-06 03:44 | 39.52413 | -104.58366 | 10441 ft | 312 kts | 327° |
| 2026-05-06 03:44 | 39.54222 | -104.59790 | 10306 ft | 304 kts | 327° |
| 2026-05-06 03:45 | 39.56020 | -104.61218 | 10172 ft | 292 kts | 327° |
| 2026-05-06 03:45 | 39.57665 | -104.62545 | 10054 ft | 274 kts | 327° |
| 2026-05-06 03:45 | 39.59227 | -104.63820 | 9903 ft | 258 kts | 327° |
| 2026-05-06 03:45 | 39.60740 | -104.65064 | 9504 ft | 252 kts | 327° |
| 2026-05-06 03:46 | 39.62223 | -104.66297 | 8964 ft | 253 kts | 327° |
| 2026-05-06 03:46 | 39.63713 | -104.67546 | 9025 ft | 262 kts | 329° |
| 2026-05-06 03:46 | 39.65333 | -104.68615 | 9011 ft | 261 kts | 340° |
| 2026-05-06 03:46 | 39.67006 | -104.69050 | 9049 ft | 230 kts | 352° |
| 2026-05-06 03:47 | 39.68513 | -104.69467 | 8966 ft | 215 kts | 352° |
| 2026-05-06 03:47 | 39.69968 | -104.69250 | 8714 ft | 211 kts | 21° |
| 2026-05-06 03:47 | 39.71398 | -104.68804 | 8434 ft | 212 kts | 2° |
| 2026-05-06 03:47 | 39.72834 | -104.68837 | 8153 ft | 200 kts | 1° |
| 2026-05-06 03:48 | 39.74170 | -104.68852 | 7901 ft | 181 kts | 2° |
| 2026-05-06 03:48 | 39.75415 | -104.68845 | 7653 ft | 177 kts | 3° |
| 2026-05-06 03:48 | 39.76641 | -104.68832 | 7425 ft | 174 kts | 3° |
| 2026-05-06 03:48 | 39.77835 | -104.68819 | 7215 ft | 169 kts | 4° |
| 2026-05-06 03:49 | 39.79005 | -104.68805 | 6998 ft | 167 kts | 3° |
| 2026-05-06 03:49 | 39.80165 | -104.68792 | 6777 ft | 166 kts | 4° |
| 2026-05-06 03:49 | 39.81310 | -104.68778 | 6543 ft | 164 kts | 4° |
| 2026-05-06 03:49 | 39.82445 | -104.68765 | 6263 ft | 162 kts | 2° |
| 2026-05-06 03:50 | 39.83559 | -104.68752 | 6008 ft | 158 kts | 1° |
| 2026-05-06 03:50 | 39.84646 | -104.68740 | 5771 ft | 155 kts | 359° |
| 2026-05-06 03:50 | 39.85718 | -104.68727 | 5557 ft | 154 kts | 360° |
| 2026-05-06 03:50 | 39.86758 | -104.68712 | 5413 ft | 140 kts | 359° |
| 2026-05-06 03:51 | 39.87628 | -104.68705 | 5365 ft | 107 kts | 1° |
| 2026-05-06 03:51 | 39.88198 | -104.68699 | 5362 ft | 57 kts | 1° |
| 2026-05-06 03:51 | 39.88522 | -104.68620 | 5360 ft | 36 kts | 30° |
| 2026-05-06 03:51 | 39.88588 | -104.68499 | 5360 ft | 16 kts | 128° |
| 2026-05-06 03:52 | 39.88477 | -104.68480 | 5360 ft | 17 kts | 181° |
| 2026-05-06 03:52 | 39.88354 | -104.68482 | 5361 ft | 20 kts | 180° |
| 2026-05-06 03:52 | 39.88162 | -104.68486 | 5361 ft | 31 kts | 180° |
| 2026-05-06 03:52 | 39.87946 | -104.68488 | 5361 ft | 31 kts | 180° |
| 2026-05-06 03:53 | 39.87729 | -104.68492 | 5361 ft | 31 kts | 181° |
| 2026-05-06 03:53 | 39.87511 | -104.68495 | 5362 ft | 31 kts | 180° |
| 2026-05-06 03:53 | 39.87296 | -104.68495 | 5362 ft | 31 kts | 181° |
| 2026-05-06 03:53 | 39.87083 | -104.68500 | 5362 ft | 31 kts | 180° |
| 2026-05-06 03:54 | 39.86868 | -104.68502 | 5362 ft | 31 kts | 181° |
| 2026-05-06 03:54 | 39.86727 | -104.68505 | 5362 ft | 31 kts | 180° |
| 2026-05-06 03:54 | 39.86514 | -104.68504 | 5363 ft | 31 kts | 181° |
| 2026-05-06 03:54 | 39.86303 | -104.68511 | 5364 ft | 29 kts | 179° |
| 2026-05-06 03:55 | 39.86170 | -104.68502 | 5367 ft | 10 kts | 164° |
| 2026-05-06 03:55 | 39.86137 | -104.68407 | 5367 ft | 18 kts | 86° |
| 2026-05-06 03:55 | 39.86136 | -104.68207 | 5371 ft | 23 kts | 92° |
| 2026-05-06 03:55 | 39.86130 | -104.67999 | 5377 ft | 22 kts | 92° |
| 2026-05-06 03:56 | 39.86073 | -104.67841 | 5376 ft | 19 kts | 165° |
| 2026-05-06 03:56 | 39.86001 | -104.67905 | 5378 ft | 10 kts | 259° |
| 2026-05-06 03:56 | 39.85993 | -104.67941 | 5380 ft | 1 kts | 238° |
| 2026-05-06 03:56 | 39.85985 | -104.67948 | 5378 ft | 4 kts | 209° |
| 2026-05-06 03:57 | 39.85956 | -104.67950 | 5377 ft | 3 kts | 172° |
| 2026-05-06 03:57 | 39.85940 | -104.67949 | 5380 ft | 2 kts | 179° |
| 2026-05-06 03:57 | 39.85939 | -104.67949 | 5380 ft | 0 kts | 178° |